HOURLY OBS INDEX

036

Central West

BLACKALL AIRPORT

Site: 036034
Alt: 281.3m
165km SE of LONGREACH


  Time     Wind        Temp  DP   Baro     Rain since   Rain past  Vis(m), Cloud(base in m), Weather
  local        km/h                         9am  last   hr   10m    
Thu 15:00   NW 13/ 20  29.0 19.6  1004.2    0.0   0.0   0.0   0.0   ----- 
Thu 15:30   NW 11/ 19  29.9 20.2  1003.7    0.0   0.0   0.0   0.0   ----- 
Thu 16:00   NW 17/ 24  29.7 20.0  1003.9    0.0   0.0   0.0   0.0   ----- 
Thu 16:30  NNW 15/ 20  29.9 19.9  1004.2    0.0   0.0   0.0   0.0   ----- 
Thu 17:00  NNW 17/ 22  29.9 20.7  1004.0    0.0   0.0   0.0   0.0   ----- 
Thu 17:30  NNW 15/ 24  29.5 19.2  1003.9    0.0   0.0   0.0   0.0   ----- 
Thu 18:00  NNW 15/ 20  29.7 19.1  1004.0    0.0   0.0   0.0   0.0   ----- 
Thu 18:00  NNW 15/ 20  29.7 19.1  1004.0    0.0   0.0  ----   0.0   ----- 
Thu 18:30  NNW 13/ 20  29.9 17.4  1004.1    0.0   0.0   0.0   0.0   ----- 
Thu 19:00    N 15/ 17  29.1 17.3  1004.4    0.0   0.0   0.0   0.0   ----- 
Thu 19:30    N 13/ 15  28.2 17.4  1004.7    0.0   0.0   0.0   0.0   ----- 
Thu 20:00    N  9/ 11  27.3 18.0  1004.6    0.0   0.0   0.0   0.0   ----- 
Thu 20:00    N  9/ 11  27.3 18.0  1004.6    0.0   0.0  ----   0.0   ----- 
Thu 20:00    N  9/ 11  27.3 18.0  1004.6    0.0   0.0  ----   0.0   ----- 
Thu 20:30    N  9/ 15  26.8 18.6  1004.3    0.0   0.0   0.0   0.0   ----- 

LONGREACH AERO

Site: 036031
Alt: 192.2m
5km E of LONGREACH


  Time     Wind        Temp  DP   Baro     Rain since   Rain past  Vis(m), Cloud(base in m), Weather
  local        km/h                         9am  last   hr   10m    
Thu 15:00  NNE 19/ 22  26.0 21.7  1003.8   19.8   0.0   0.0   0.0   10000 
Thu 15:30  NNE 15/ 17  27.0 21.7  1003.6   19.8   0.0   0.0   0.0   10000 
Thu 16:00    N 15/ 17  27.8 22.3  1003.7   20.0   0.2   0.2   0.2   10000 
Thu 16:30    N 17/ 19  28.9 19.8  1003.5   20.0   0.0   0.2   0.0   10000 
Thu 17:00  NNW 15/ 19  28.8 19.4  1003.6   20.0   0.0   0.0   0.0   10000 
Thu 17:30  NNW 13/ 17  28.6 20.1  1003.8   20.0   0.0   0.0   0.0   10000 
Thu 18:00  WNW 13/ 15  28.2 20.5  1004.2   20.0   0.0   0.0   0.0   10000 
Thu 18:00  WNW 13/ 15  28.2 20.5  1004.2   20.0   0.0  ----   0.0   10000 
Thu 18:30  NNW 15/ 19  27.2 21.5  1004.8   20.0   0.0   0.0   0.0   10000 
Thu 19:00    N 15/ 19  26.5 21.7  1005.2   20.0   0.0   0.0   0.0   10000 
Thu 19:30    N 17/ 19  26.1 21.7  1005.1   20.0   0.0   0.0   0.0   10000 
Thu 20:00    N 17/ 24  25.9 22.2  1004.8   20.0   0.0   0.0   0.0   10000 
Thu 20:00    N 17/ 24  25.9 22.2  1004.8   20.0   0.0  ----   0.0   10000 
Thu 20:00    N 17/ 24  25.9 22.2  1004.8   20.0   0.0  ----   0.0   10000 
Thu 20:30  NNW 20/ 28  25.2 22.1  1004.9   20.0   0.0   0.0   0.0   10000